Time;durP1;ratioP1;P1;durP2;ratioP2;P2;SDS_P1;SDS_P2;PMS_P1;PMS_P2;Temp;Humidity;BMP_temperature;BMP_pressure;BME280_temperature;BME280_humidity;BME280_pressure;Samples;Min_cycle;Max_cycle;Signal;HPM_P1;HPM_P2
2022/08/15 00:00:40;;;;;;;14.32;3.00;;;;;;;22.37;54.58;97615.75;5010666;28;20048;-58
2022/08/15 00:03:24;;;;;;;5.82;2.47;;;;;;;22.51;54.45;97639.25;5000651;28;20036;-58
2022/08/15 00:05:50;;;;;;;9.43;2.83;;;;;;;22.42;54.55;97622.97;5017316;28;20450;-59
2022/08/15 00:08:18;;;;;;;10.20;2.92;;;;;;;22.70;54.74;97643.16;4999651;28;20476;-60
2022/08/15 00:10:45;;;;;;;6.13;2.72;;;;;;;22.52;54.17;97611.69;5012733;28;20049;-58
2022/08/15 00:13:18;;;;;;;10.25;2.65;;;;;;;22.72;54.01;97643.72;5012542;28;20038;-59
2022/08/15 00:15:46;;;;;;;10.57;2.80;;;;;;;22.71;54.60;97636.00;5001896;28;20030;-58
2022/08/15 00:18:11;;;;;;;8.38;2.50;;;;;;;22.67;54.79;97634.91;5019689;28;20794;-59
2022/08/15 00:20:37;;;;;;;7.35;2.38;;;;;;;22.62;55.10;97633.81;5021768;28;20044;-59
2022/08/15 00:23:05;;;;;;;7.13;2.90;;;;;;;22.57;54.69;97636.38;5021436;28;20103;-59
2022/08/15 00:25:31;;;;;;;8.70;2.80;;;;;;;22.33;55.14;97613.84;5019497;28;20515;-58
2022/08/15 00:27:57;;;;;;;5.07;2.40;;;;;;;22.63;55.25;97642.56;5020849;28;20034;-59
2022/08/15 00:30:22;;;;;;;8.25;2.50;;;;;;;22.59;55.54;97649.41;5020747;28;20140;-59
2022/08/15 00:32:55;;;;;;;5.75;2.42;;;;;;;22.58;55.22;97643.31;5024022;28;20709;-60
2022/08/15 00:35:36;;;;;;;9.10;2.55;;;;;;;22.63;55.07;97639.91;5017405;28;20049;-58
2022/08/15 00:38:34;;;;;;;4.93;2.47;;;;;;;22.60;55.13;97627.16;5003797;28;20088;-58
2022/08/15 00:43:59;;;;;;;5.68;2.40;;;;;;;22.58;55.63;97637.19;5019829;28;20339;-58
2022/08/15 00:46:27;;;;;;;6.80;2.70;;;;;;;22.33;55.50;97595.31;5002313;28;20469;-59
2022/08/15 00:48:54;;;;;;;5.70;2.65;;;;;;;22.67;55.34;97633.09;5021636;28;20030;-59
2022/08/15 00:51:19;;;;;;;5.97;2.78;;;;;;;;;;5018554;28;20128;-59
2022/08/15 00:53:51;;;;;;;9.37;2.40;;;;;;;22.60;55.12;97630.59;5030289;28;20047;-58
2022/08/15 00:56:17;;;;;;;6.85;2.47;;;;;;;22.61;55.20;97631.41;4999349;28;20033;-58
2022/08/15 00:58:44;;;;;;;7.20;2.47;;;;;;;22.65;55.36;97632.50;5017735;28;20030;-59
2022/08/15 01:01:12;;;;;;;9.63;2.58;;;;;;;22.61;55.77;97628.75;5004482;28;20423;-58
2022/08/15 01:03:40;;;;;;;5.35;2.22;;;;;;;22.62;55.51;97633.00;5004934;28;20065;-58
2022/08/15 01:06:07;;;;;;;5.57;2.37;;;;;;;22.59;56.02;97620.25;5022642;28;20033;-58
2022/08/15 01:08:35;;;;;;;7.55;2.47;;;;;;;22.58;55.58;97624.75;5020834;28;20079;-59
2022/08/15 01:11:14;;;;;;;11.55;2.53;;;;;;;22.51;55.56;97634.72;5003055;28;20072;-59
2022/08/15 01:13:40;;;;;;;9.10;2.45;;;;;;;22.51;55.59;97628.66;5018873;28;20045;-58
2022/08/15 01:16:06;;;;;;;5.57;2.63;;;;;;;22.58;55.41;97621.28;5022225;28;20038;-59
2022/08/15 01:18:31;;;;;;;6.28;2.60;;;;;;;22.57;55.40;97620.50;5019445;28;20082;-59
2022/08/15 01:20:58;;;;;;;8.18;2.60;;;;;;;22.59;55.53;97620.25;5016497;28;20038;-59
2022/08/15 01:23:35;;;;;;;8.20;2.60;;;;;;;22.61;55.71;97618.16;4999391;28;20034;-58
2022/08/15 01:26:04;;;;;;;7.20;2.30;;;;;;;22.64;56.10;97615.03;5019567;28;20064;-59
2022/08/15 01:28:43;;;;;;;5.82;2.33;;;;;;;22.52;56.27;97591.28;5004370;28;20036;-58
2022/08/15 01:31:18;;;;;;;;;;;;;;;22.75;56.37;97616.75;5017992;28;20030;-59
2022/08/15 01:33:52;;;;;;;4.40;2.20;;;;;;;22.70;56.08;97606.06;5019865;28;20007;-59
2022/08/15 01:36:19;;;;;;;7.22;2.28;;;;;;;22.38;56.32;97575.00;4998444;28;20028;-59
2022/08/15 01:38:49;;;;;;;5.72;2.53;;;;;;;22.60;56.79;97611.28;5020954;28;20711;-59
2022/08/15 01:41:17;;;;;;;5.10;2.35;;;;;;;22.19;57.13;97547.97;5023703;28;20132;-58
2022/08/15 01:43:52;;;;;;;7.38;2.50;;;;;;;22.49;57.10;97583.84;5015849;28;20507;-58
2022/08/15 01:46:20;;;;;;;4.30;2.25;;;;;;;22.57;56.79;97609.91;5008218;28;20414;-59
2022/08/15 01:48:51;;;;;;;7.03;2.22;;;;;;;22.60;56.74;97606.75;5013664;28;20068;-59
2022/08/15 01:51:17;;;;;;;5.22;2.40;;;;;;;22.67;57.40;97609.25;5003289;28;20056;-59
2022/08/15 01:54:04;;;;;;;5.68;2.25;;;;;;;22.61;57.54;97605.69;5017475;28;20064;-58
2022/08/15 01:56:36;;;;;;;5.00;2.17;;;;;;;22.45;57.71;97586.19;5018212;28;20757;-59
2022/08/15 01:59:03;;;;;;;4.70;2.45;;;;;;;22.54;57.91;97606.94;4994492;28;20030;-58
2022/08/15 02:01:39;;;;;;;4.20;2.10;;;;;;;22.56;57.78;97618.09;5018100;28;20025;-58
2022/08/15 02:04:05;;;;;;;4.82;2.28;;;;;;;22.59;57.76;97601.72;5019025;28;20090;-58
2022/08/15 02:06:31;;;;;;;4.53;2.10;;;;;;;22.64;58.51;97607.06;5019844;28;20762;-58
2022/08/15 02:08:56;;;;;;;6.00;2.50;;;;;;;22.58;58.56;97608.88;5020151;28;20033;-60
2022/08/15 02:11:25;;;;;;;5.22;2.40;;;;;;;22.58;58.98;97608.03;5024866;28;20036;-58
2022/08/15 02:13:54;;;;;;;5.07;2.40;;;;;;;22.59;58.74;97609.66;5016860;28;20025;-58
2022/08/15 02:16:21;;;;;;;4.38;2.10;;;;;;;22.57;58.72;97614.41;5011068;28;20467;-59
2022/08/15 02:18:46;;;;;;;4.22;2.20;;;;;;;22.51;59.16;97610.91;5000963;28;20068;-59
2022/08/15 02:21:12;;;;;;;4.85;2.50;;;;;;;22.51;59.32;97623.34;5003049;28;20037;-58
2022/08/15 02:23:37;;;;;;;4.60;2.30;;;;;;;22.48;58.94;97614.03;4999504;28;20760;-59
2022/08/15 02:26:06;;;;;;;4.88;2.30;;;;;;;22.41;58.80;97624.78;5018522;28;20040;-58
2022/08/15 02:28:31;;;;;;;5.55;2.40;;;;;;;22.29;58.71;97584.41;5002662;28;20022;-60
2022/08/15 02:30:57;;;;;;;4.68;2.45;;;;;;;22.46;58.73;97608.97;5019190;28;20114;-59
2022/08/15 02:33:23;;;;;;;4.22;2.15;;;;;;;22.59;58.75;97625.56;5018960;28;20021;-59
2022/08/15 02:35:49;;;;;;;4.93;2.67;;;;;;;22.30;58.90;97588.63;5017385;28;20029;-59
2022/08/15 02:38:15;;;;;;;4.50;2.25;;;;;;;22.45;59.42;97612.69;5014821;28;20045;-59
2022/08/15 02:40:40;;;;;;;4.32;2.40;;;;;;;22.46;59.27;97618.78;5017976;28;20532;-59
2022/08/15 02:43:09;;;;;;;4.20;2.20;;;;;;;22.42;59.43;97620.31;5021690;28;20044;-59
2022/08/15 02:45:38;;;;;;;4.88;2.60;;;;;;;22.15;60.71;97578.63;5018292;28;20055;-59
2022/08/15 02:48:04;;;;;;;7.47;2.70;;;;;;;;;;5017496;28;20034;-59
2022/08/15 02:50:30;;;;;;;5.43;2.63;;;;;;;22.37;61.66;97617.59;5024941;28;20491;-59
2022/08/15 02:52:56;;;;;;;4.90;2.70;;;;;;;22.31;63.85;97608.78;5019014;28;20104;-59
2022/08/15 02:55:22;;;;;;;4.70;2.63;;;;;;;22.25;65.30;97615.84;5016418;28;20801;-58
2022/08/15 02:57:47;;;;;;;4.30;2.55;;;;;;;22.00;64.84;97579.22;5014523;28;20151;-59
2022/08/15 03:00:16;;;;;;;5.60;2.70;;;;;;;22.30;64.12;97616.97;5014571;28;20033;-58
2022/08/15 03:03:09;;;;;;;5.13;2.90;;;;;;;22.37;64.19;97613.09;5014773;28;20136;-58
2022/08/15 03:05:38;;;;;;;5.63;2.67;;;;;;;22.33;64.03;97600.59;5007913;28;20045;-59
2022/08/15 03:08:04;;;;;;;5.00;2.70;;;;;;;22.34;64.77;97607.47;5017995;28;20029;-58
2022/08/15 03:10:30;;;;;;;6.03;2.85;;;;;;;22.36;65.44;97600.09;5007385;28;20029;-59
2022/08/15 03:12:58;;;;;;;5.78;2.90;;;;;;;22.33;64.67;97585.50;5017936;28;20068;-59
2022/08/15 03:15:30;;;;;;;4.60;2.53;;;;;;;22.19;65.63;97595.63;5019953;28;20084;-59
2022/08/15 03:17:55;;;;;;;7.60;2.78;;;;;;;22.24;65.04;97597.53;5024564;28;20033;-59
2022/08/15 03:20:21;;;;;;;4.95;2.40;;;;;;;22.17;65.25;97605.66;5024480;28;20083;-59
2022/08/15 03:22:49;;;;;;;5.60;2.83;;;;;;;22.03;64.61;97565.50;5024321;28;20084;-58
2022/08/15 03:25:16;;;;;;;6.60;2.90;;;;;;;22.23;64.65;97602.03;5005603;28;20456;-59
2022/08/15 03:27:42;;;;;;;4.80;2.70;;;;;;;22.28;64.49;97601.31;5021153;28;20114;-59
2022/08/15 03:30:09;;;;;;;5.03;2.78;;;;;;;22.18;65.04;97604.63;5023136;28;20451;-59
2022/08/15 03:32:49;;;;;;;5.05;2.85;;;;;;;22.22;63.84;97599.63;5006664;28;20109;-59
2022/08/15 03:35:17;;;;;;;5.80;2.50;;;;;;;22.08;63.51;97594.66;5022401;28;20080;-59
2022/08/15 03:37:43;;;;;;;6.30;2.30;;;;;;;22.13;62.32;97593.94;5022445;28;20051;-59
2022/08/15 03:40:09;;;;;;;5.03;2.50;;;;;;;22.17;62.28;97592.41;5025791;28;20033;-59
2022/08/15 03:42:35;;;;;;;5.05;2.35;;;;;;;22.24;62.12;97587.75;5024801;28;20075;-58
2022/08/15 03:45:08;;;;;;;4.93;2.58;;;;;;;22.20;62.01;97596.44;5020834;28;20116;-59
2022/08/15 03:47:34;;;;;;;4.78;2.50;;;;;;;21.95;61.61;97554.53;5002575;28;20052;-59
2022/08/15 03:49:59;;;;;;;6.35;2.60;;;;;;;22.19;61.44;97597.47;5023224;28;20556;-60
2022/08/15 03:52:25;;;;;;;3.92;2.00;;;;;;;22.14;61.94;97590.28;5007636;28;20709;-59
2022/08/15 03:54:51;;;;;;;5.07;2.70;;;;;;;22.05;62.00;97581.13;5022679;28;20042;-59
2022/08/15 03:57:17;;;;;;;4.82;2.60;;;;;;;21.97;62.28;97578.91;5016181;28;20036;-59
2022/08/15 03:59:43;;;;;;;6.40;2.65;;;;;;;21.58;63.31;97555.88;5023262;28;20095;-58
2022/08/15 04:02:10;;;;;;;6.28;2.47;;;;;;;21.80;63.52;97579.72;5019746;28;20029;-59
2022/08/15 04:04:35;;;;;;;4.97;2.58;;;;;;;21.85;63.69;97584.31;5055432;28;20040;-59
2022/08/15 04:07:02;;;;;;;7.72;3.08;;;;;;;21.85;63.26;97581.66;5004316;28;20033;-58
2022/08/15 04:09:27;;;;;;;9.68;3.00;;;;;;;21.84;62.86;97575.56;5013914;28;20033;-59
2022/08/15 04:11:53;;;;;;;6.90;3.05;;;;;;;21.78;62.79;97579.19;5022248;28;20029;-59
2022/08/15 04:14:18;;;;;;;6.95;2.72;;;;;;;21.83;62.85;97581.06;5022159;28;20079;-58
2022/08/15 04:16:44;;;;;;;10.05;2.97;;;;;;;21.51;63.21;97544.66;5005485;28;20064;-59
2022/08/15 04:19:09;;;;;;;8.32;2.80;;;;;;;21.73;62.93;97576.44;5020503;28;20611;-59
2022/08/15 04:21:34;;;;;;;6.30;2.53;;;;;;;21.73;62.89;97587.03;5002748;28;20098;-59
2022/08/15 04:24:00;;;;;;;6.93;2.95;;;;;;;21.65;62.88;97579.50;5022229;28;20080;-59
2022/08/15 04:26:25;;;;;;;10.02;2.78;;;;;;;21.55;63.41;97580.13;5020012;28;20083;-58
2022/08/15 04:28:51;;;;;;;5.30;2.53;;;;;;;21.42;63.01;97586.50;5006364;28;20853;-59
2022/08/15 04:31:19;;;;;;;10.90;2.90;;;;;;;21.26;62.52;97566.94;5021618;28;20021;-58
2022/08/15 04:33:45;;;;;;;5.25;2.55;;;;;;;21.46;62.54;97592.16;5019129;28;20477;-59
2022/08/15 04:36:13;;;;;;;6.93;2.80;;;;;;;21.39;62.60;97581.69;5019372;28;20037;-58
2022/08/15 04:38:41;;;;;;;5.47;2.60;;;;;;;21.52;62.55;97587.75;5021587;28;20531;-59
2022/08/15 04:41:07;;;;;;;5.43;2.78;;;;;;;21.40;63.02;97595.75;5007231;28;20121;-59
2022/08/15 04:43:34;;;;;;;6.18;2.80;;;;;;;21.18;63.12;97558.63;5006050;28;20057;-58
2022/08/15 04:46:00;;;;;;;7.22;2.85;;;;;;;21.31;63.51;97597.97;5018745;28;20386;-58
2022/08/15 04:48:26;;;;;;;5.53;2.67;;;;;;;21.26;63.73;97590.75;5022184;28;20064;-59
2022/08/15 04:50:54;;;;;;;6.28;3.17;;;;;;;21.26;64.31;97593.38;5021928;28;20552;-58
2022/08/15 04:53:24;;;;;;;7.20;2.78;;;;;;;21.02;64.52;97557.56;5006676;28;20029;-58
2022/08/15 04:55:49;;;;;;;6.60;2.65;;;;;;;21.34;64.22;97604.59;5019208;28;20106;-60
2022/08/15 04:58:15;;;;;;;5.28;2.47;;;;;;;21.30;64.75;97597.16;5018686;28;20443;-58
2022/08/15 05:00:50;;;;;;;5.80;2.78;;;;;;;21.32;64.91;97607.50;5017042;28;20034;-60
2022/08/15 05:03:18;;;;;;;7.32;2.95;;;;;;;21.16;65.08;97566.00;5020341;28;20148;-58
2022/08/15 05:05:48;;;;;;;6.82;3.05;;;;;;;21.40;65.79;97601.03;5001838;28;20060;-60
2022/08/15 05:08:15;;;;;;;7.78;3.03;;;;;;;21.44;66.49;97610.06;4997623;28;20179;-62
2022/08/15 05:10:41;;;;;;;7.03;3.30;;;;;;;21.10;67.70;97562.44;5026065;28;20072;-59
2022/08/15 05:13:13;;;;;;;5.82;3.63;;;;;;;21.35;69.20;97601.72;5033890;28;20493;-59
2022/08/15 05:15:40;;;;;;;7.20;3.20;;;;;;;21.34;70.12;97602.78;5024678;28;20131;-59
2022/08/15 05:18:06;;;;;;;7.60;3.05;;;;;;;21.34;70.35;97605.44;5026431;28;20544;-60
2022/08/15 05:20:31;;;;;;;5.20;3.13;;;;;;;21.21;70.63;97595.97;5014441;28;20147;-58
2022/08/15 05:23:00;;;;;;;4.80;3.03;;;;;;;21.30;70.63;97604.28;5011206;28;20564;-58
2022/08/15 05:25:26;;;;;;;5.03;2.83;;;;;;;21.29;70.81;97610.63;5000714;28;20052;-58
2022/08/15 05:27:54;;;;;;;5.45;3.38;;;;;;;21.20;70.89;97604.13;5021081;28;20376;-59
2022/08/15 05:30:21;;;;;;;5.68;3.00;;;;;;;21.19;71.49;97616.53;5017050;28;20036;-59
2022/08/15 05:32:47;;;;;;;5.30;3.20;;;;;;;21.20;71.56;97604.13;5002724;28;20483;-59
2022/08/15 05:35:13;;;;;;;5.20;3.40;;;;;;;21.31;71.20;97609.34;5004687;28;20033;-59
2022/08/15 05:37:38;;;;;;;5.10;3.15;;;;;;;21.17;71.58;97599.31;5014983;28;20021;-58
2022/08/15 05:40:06;;;;;;;6.18;3.20;;;;;;;21.26;71.45;97603.16;5000937;28;20060;-59
2022/08/15 05:42:57;;;;;;;5.25;2.92;;;;;;;21.26;71.32;97601.31;5019399;28;20060;-59
2022/08/15 05:45:46;;;;;;;5.82;3.50;;;;;;;21.33;70.92;97598.53;5014363;28;20565;-59
2022/08/15 05:48:17;;;;;;;5.32;3.20;;;;;;;21.37;71.15;97604.13;5018762;28;20033;-59
2022/08/15 05:50:50;;;;;;;5.45;3.83;;;;;;;21.32;71.15;97604.88;5003873;28;20061;-59
2022/08/15 05:53:29;;;;;;;6.13;3.40;;;;;;;21.13;71.02;97575.19;5016436;28;20539;-58
2022/08/15 05:56:18;;;;;;;5.63;2.88;;;;;;;21.25;71.08;97610.28;5018385;28;20059;-60
2022/08/15 05:59:04;;;;;;;5.60;3.13;;;;;;;21.30;71.02;97609.56;5002119;28;20376;-59
2022/08/15 06:01:35;;;;;;;4.88;2.90;;;;;;;21.37;70.18;97604.94;5013205;28;20034;-59
2022/08/15 06:04:10;;;;;;;5.07;3.10;;;;;;;21.38;69.81;97597.81;5014407;28;20041;-59
2022/08/15 06:06:40;;;;;;;5.00;2.97;;;;;;;21.39;69.66;97599.41;4997517;28;20028;-59
2022/08/15 06:09:14;;;;;;;;;;;;;;;21.41;69.39;97603.44;5017002;28;20488;-58
2022/08/15 06:11:44;;;;;;;5.55;3.20;;;;;;;21.44;69.30;97604.78;5018379;28;19916;-59
2022/08/15 06:14:38;;;;;;;6.13;2.88;;;;;;;21.48;68.66;97608.59;5002923;28;20091;-59
2022/08/15 06:17:09;;;;;;;6.35;3.15;;;;;;;21.40;68.93;97591.25;5002537;28;20025;-59
2022/08/15 06:19:41;;;;;;;6.68;3.20;;;;;;;21.35;69.34;97601.72;5015916;28;20029;-58
2022/08/15 06:22:17;;;;;;;4.60;2.92;;;;;;;21.49;68.65;97607.56;5016622;28;20596;-59
2022/08/15 06:24:51;;;;;;;5.85;2.97;;;;;;;21.36;68.77;97565.53;5033049;28;20041;-59
2022/08/15 06:27:29;;;;;;;6.47;2.88;;;;;;;21.78;68.67;97613.56;5019406;28;20108;-58
2022/08/15 06:30:08;;;;;;;4.97;2.83;;;;;;;21.95;67.58;97607.47;5013595;28;20063;-60
2022/08/15 06:32:39;;;;;;;5.55;3.08;;;;;;;21.94;67.11;97614.59;5001861;28;20049;-59
2022/08/15 06:35:09;;;;;;;5.22;3.10;;;;;;;21.96;67.48;97617.81;5011729;28;20351;-59
2022/08/15 06:37:57;;;;;;;;;;;;;;;21.93;67.44;97617.50;5014763;28;20030;-59
2022/08/15 06:40:38;;;;;;;6.03;2.90;;;;;;;22.02;67.38;97616.81;5027021;28;19917;-59
2022/08/15 06:43:07;;;;;;;5.32;3.15;;;;;;;21.88;67.69;97607.63;5015042;28;20026;-59
2022/08/15 06:45:35;;;;;;;5.82;3.13;;;;;;;22.03;67.93;97615.78;4992363;28;20018;-59
2022/08/15 06:48:05;;;;;;;6.45;3.05;;;;;;;21.77;67.90;97572.28;5011932;28;21700;-59
2022/08/15 06:50:34;;;;;;;5.35;3.30;;;;;;;21.94;67.43;97611.97;4997183;28;20380;-59
2022/08/15 06:53:06;;;;;;;7.22;3.53;;;;;;;21.98;68.30;97609.63;5013977;28;20519;-59
2022/08/15 06:55:46;;;;;;;5.53;3.10;;;;;;;21.78;68.99;97578.38;5039652;28;20026;-59
2022/08/15 06:58:16;;;;;;;5.40;2.97;;;;;;;22.02;68.93;97611.53;5000484;28;20037;-59
2022/08/15 07:00:49;;;;;;;5.70;3.25;;;;;;;21.89;68.32;97569.53;4994647;28;20034;-59
2022/08/15 07:03:20;;;;;;;5.82;2.92;;;;;;;22.19;67.92;97611.50;5012677;28;20034;-59
2022/08/15 07:05:50;;;;;;;5.25;3.00;;;;;;;21.95;67.69;97573.06;5012360;28;20049;-59
2022/08/15 07:08:26;;;;;;;5.22;3.20;;;;;;;22.45;67.02;97617.97;5011298;28;20141;-59
2022/08/15 07:10:54;;;;;;;4.60;2.67;;;;;;;22.42;67.04;97609.72;5011974;28;20040;-60
2022/08/15 07:13:25;;;;;;;8.68;3.30;;;;;;;22.20;66.80;97572.59;5008119;28;20115;-59
2022/08/15 07:15:56;;;;;;;5.15;2.88;;;;;;;22.50;66.16;97616.44;5015339;28;20025;-59
2022/08/15 07:18:31;;;;;;;6.40;3.00;;;;;;;22.54;66.19;97626.28;4998724;28;20075;-60
2022/08/15 07:21:09;;;;;;;7.07;3.00;;;;;;;22.62;65.83;97620.56;5017084;28;20047;-59
2022/08/15 07:23:38;;;;;;;4.70;2.75;;;;;;;22.59;65.04;97618.41;5012791;28;20026;-58
2022/08/15 07:26:11;;;;;;;6.88;3.13;;;;;;;22.46;65.68;97585.13;5021116;28;20037;-59
2022/08/15 07:28:41;;;;;;;5.05;2.83;;;;;;;22.85;65.90;97624.00;5012747;28;20675;-59
2022/08/15 07:31:31;;;;;;;5.15;2.90;;;;;;;22.62;66.37;97622.41;5014075;28;20026;-60
2022/08/15 07:34:04;;;;;;;6.03;3.25;;;;;;;22.36;66.00;97597.44;5011274;28;20108;-59
2022/08/15 07:36:33;;;;;;;4.60;2.75;;;;;;;22.56;65.80;97620.72;5023302;28;20018;-59
2022/08/15 07:38:59;;;;;;;5.35;2.90;;;;;;;22.60;64.98;97617.38;5009900;28;20052;-59
2022/08/15 07:41:35;;;;;;;4.85;2.88;;;;;;;22.67;64.55;97606.59;5010219;28;20089;-59
2022/08/15 07:44:18;;;;;;;5.32;2.67;;;;;;;22.64;63.13;97580.59;4995534;28;20073;-59
2022/08/15 07:47:11;;;;;;;5.80;2.72;;;;;;;22.93;62.78;97622.78;5014255;28;20453;-59
2022/08/15 07:49:37;;;;;;;6.22;2.70;;;;;;;22.81;61.76;97594.53;5009033;28;20034;-58
2022/08/15 07:52:21;;;;;;;5.20;2.78;;;;;;;23.01;62.29;97623.09;5026845;28;20143;-59
2022/08/15 07:54:49;;;;;;;4.65;2.78;;;;;;;23.08;61.79;97616.84;5010571;28;20062;-59
2022/08/15 07:57:20;;;;;;;5.85;3.00;;;;;;;23.11;62.99;97619.81;5010264;28;20064;-59
2022/08/15 08:00:08;;;;;;;4.47;2.70;;;;;;;23.24;61.52;97626.56;5007560;28;20041;-59
2022/08/15 08:03:02;;;;;;;6.55;2.63;;;;;;;23.35;61.10;97630.91;5016477;28;20036;-59
2022/08/15 08:05:32;;;;;;;5.03;2.58;;;;;;;23.43;61.22;97629.66;4989543;28;20038;-59
2022/08/15 08:08:00;;;;;;;6.30;2.95;;;;;;;23.53;60.35;97629.75;5011572;28;20697;-59
2022/08/15 08:10:40;;;;;;;5.23;2.70;;;;;;;23.31;59.00;97591.88;5011238;28;20108;-59
2022/08/15 08:13:18;;;;;;;5.50;2.65;;;;;;;23.63;57.16;97630.88;4994036;28;20716;-59
2022/08/15 08:15:52;;;;;;;4.60;2.47;;;;;;;23.60;57.68;97627.69;5018950;28;20057;-59
2022/08/15 08:18:47;;;;;;;4.82;2.40;;;;;;;23.79;57.61;97641.38;5016069;28;20235;-59
2022/08/15 08:21:16;;;;;;;5.22;2.60;;;;;;;23.97;56.95;97632.22;5008979;28;20108;-59
2022/08/15 08:23:46;;;;;;;5.05;2.78;;;;;;;23.92;57.33;97610.94;5009741;28;20602;-58
2022/08/15 08:26:36;;;;;;;6.35;2.40;;;;;;;24.07;56.64;97638.66;5011650;28;20026;-59
2022/08/15 08:29:19;;;;;;;4.55;2.42;;;;;;;24.36;56.73;97636.44;5009853;28;20155;-60
2022/08/15 08:32:17;;;;;;;6.15;2.55;;;;;;;24.43;56.72;97644.97;5019810;28;20036;-59
2022/08/15 08:34:55;;;;;;;4.75;2.20;;;;;;;24.27;56.03;97638.00;5017394;28;20542;-59
2022/08/15 08:37:29;;;;;;;4.50;2.50;;;;;;;24.11;55.17;97637.09;5011880;28;20022;-59
2022/08/15 08:43:15;;;;;;;6.30;2.55;;;;;;;26.04;50.83;97626.47;5014777;28;20478;-59
2022/08/15 08:46:20;;;;;;;4.65;2.78;;;;;;;26.80;47.48;97622.00;5013419;28;20167;-59
2022/08/15 08:49:05;;;;;;;4.65;2.22;;;;;;;27.69;43.93;97619.28;4997423;28;20033;-58
2022/08/15 08:51:57;;;;;;;6.05;2.63;;;;;;;27.46;44.70;97622.69;5009781;28;20041;-59
2022/08/15 08:54:31;;;;;;;5.40;2.50;;;;;;;27.75;44.25;97628.84;5014465;28;20026;-59
2022/08/15 08:57:01;;;;;;;6.63;2.50;;;;;;;28.46;41.01;97597.16;5009873;28;20507;-59
2022/08/15 08:59:34;;;;;;;4.80;2.47;;;;;;;28.93;40.89;97624.13;5013023;28;20033;-59
2022/08/15 09:02:18;;;;;;;4.13;2.10;;;;;;;29.42;40.09;97638.19;5025518;28;20103;-60
2022/08/15 09:04:49;;;;;;;4.88;2.55;;;;;;;28.66;41.84;97630.09;5007324;28;20048;-59
2022/08/15 09:07:22;;;;;;;4.72;2.50;;;;;;;28.50;42.38;97634.81;5010543;28;20029;-60
2022/08/15 09:09:49;;;;;;;5.38;2.50;;;;;;;28.11;44.61;97630.41;5016413;28;20112;-59
2022/08/15 09:15:15;;;;;;;5.05;2.13;;;;;;;27.80;45.50;97618.13;5014464;28;20069;-59
2022/08/15 09:17:42;;;;;;;4.20;2.30;;;;;;;27.54;45.50;97620.19;5007172;28;20075;-59
2022/08/15 09:20:08;;;;;;;6.00;2.50;;;;;;;26.47;47.98;97625.00;5003290;28;20029;-59
2022/08/15 09:22:33;;;;;;;4.88;2.50;;;;;;;25.68;49.40;97613.16;5016525;28;20365;-59
2022/08/15 09:24:59;;;;;;;4.93;2.33;;;;;;;25.37;49.94;97617.66;5011368;28;20078;-59
2022/08/15 09:27:43;;;;;;;6.07;2.60;;;;;;;25.48;51.24;97620.09;5018632;28;20045;-59
2022/08/15 09:30:10;;;;;;;4.10;2.28;;;;;;;25.48;52.38;97617.44;5014105;28;20021;-59
2022/08/15 09:33:17;;;;;;;4.43;2.40;;;;;;;25.60;52.44;97619.03;4993906;28;20030;-59
2022/08/15 09:36:04;;;;;;;4.32;2.20;;;;;;;25.45;52.14;97609.16;4998515;28;20040;-60
2022/08/15 09:39:02;;;;;;;4.05;2.25;;;;;;;25.40;51.47;97601.97;5017842;28;20675;-59
2022/08/15 09:41:43;;;;;;;5.00;2.33;;;;;;;25.66;49.87;97588.66;5001098;28;20488;-59
2022/08/15 09:44:20;;;;;;;5.10;2.40;;;;;;;25.74;50.42;97595.31;5014649;28;20014;-58
2022/08/15 09:47:01;;;;;;;4.15;2.20;;;;;;;25.83;50.05;97593.69;5013327;28;20036;-58
2022/08/15 09:49:48;;;;;;;4.43;2.38;;;;;;;25.95;49.18;97591.59;5011869;28;20009;-59
2022/08/15 09:52:42;;;;;;;5.35;2.40;;;;;;;26.02;49.25;97570.00;5017466;28;20183;-59
2022/08/15 09:55:14;;;;;;;4.70;2.50;;;;;;;26.06;48.74;97595.81;5007454;28;20416;-59
2022/08/15 09:57:46;;;;;;;5.55;2.40;;;;;;;25.70;50.56;97571.91;5014759;28;20034;-58
2022/08/15 10:00:17;;;;;;;5.70;2.50;;;;;;;25.83;48.17;97577.72;5007088;28;20112;-58
2022/08/15 10:02:45;;;;;;;4.22;2.20;;;;;;;25.74;47.76;97545.53;5007992;28;20571;-59
2022/08/15 10:05:11;;;;;;;6.05;2.80;;;;;;;25.94;49.37;97567.88;5012645;28;20137;-59
2022/08/15 10:07:53;;;;;;;4.70;2.25;;;;;;;26.28;47.85;97570.72;5007189;28;20195;-59
2022/08/15 10:10:31;;;;;;;5.07;2.40;;;;;;;26.53;45.64;97577.03;5013342;28;20098;-59
2022/08/15 10:13:23;;;;;;;5.45;2.50;;;;;;;26.43;45.55;97544.03;5004208;28;20034;-59
2022/08/15 10:15:50;;;;;;;5.22;2.50;;;;;;;26.55;45.25;97565.00;5010108;28;20037;-58
2022/08/15 10:18:27;;;;;;;4.75;2.20;;;;;;;26.76;41.09;97564.94;5014821;28;20760;-59
2022/08/15 10:20:55;;;;;;;4.65;1.90;;;;;;;26.89;40.47;97569.66;5011961;28;20656;-58
2022/08/15 10:23:31;;;;;;;5.40;2.17;;;;;;;26.96;38.08;97551.50;5016615;28;20025;-59
2022/08/15 10:26:27;;;;;;;4.32;2.47;;;;;;;26.99;39.03;97560.78;5033076;28;20033;-58
2022/08/15 10:29:30;;;;;;;6.35;2.40;;;;;;;27.09;38.30;97558.06;5010493;28;20107;-58
2022/08/15 10:31:58;;;;;;;4.35;2.70;;;;;;;27.32;37.51;97556.56;4993603;28;20044;-59
2022/08/15 10:35:15;;;;;;;6.88;2.30;;;;;;;27.20;37.34;97532.91;5018969;28;20029;-61
2022/08/15 10:37:51;;;;;;;6.38;2.10;;;;;;;27.08;37.62;97503.13;5011581;28;20041;-59
2022/08/15 10:40:25;;;;;;;4.13;2.10;;;;;;;27.38;37.11;97528.78;5023890;28;20029;-58
2022/08/15 10:43:11;;;;;;;5.78;1.92;;;;;;;27.52;36.94;97538.81;5010780;28;20036;-59
2022/08/15 10:45:49;;;;;;;5.05;1.98;;;;;;;27.54;37.47;97536.66;5014508;28;20030;-59
2022/08/15 10:48:24;;;;;;;4.57;2.00;;;;;;;27.64;37.33;97533.88;5014406;28;20037;-59
2022/08/15 10:50:53;;;;;;;6.47;2.33;;;;;;;27.65;37.68;97526.66;5016753;28;20036;-58
2022/08/15 10:53:21;;;;;;;4.65;2.10;;;;;;;27.72;36.71;97530.59;5009849;28;20520;-59
2022/08/15 10:55:47;;;;;;;4.67;2.10;;;;;;;27.67;36.99;97525.28;4995651;28;20148;-58
2022/08/15 10:58:17;;;;;;;4.45;2.10;;;;;;;27.55;37.15;97492.88;4996432;28;20103;-59
2022/08/15 11:01:07;;;;;;;6.50;2.15;;;;;;;27.87;36.98;97524.28;5000892;28;20026;-58
2022/08/15 11:03:43;;;;;;;4.80;2.38;;;;;;;27.65;37.73;97495.41;5010014;28;20112;-59
2022/08/15 11:06:15;;;;;;;4.43;2.20;;;;;;;27.87;36.83;97521.63;5007229;28;20122;-57
2022/08/15 11:08:46;;;;;;;4.55;2.10;;;;;;;28.03;36.79;97511.59;4991628;28;20401;-59
2022/08/15 11:11:12;;;;;;;6.47;2.10;;;;;;;28.14;35.92;97501.59;5000965;28;20501;-59
2022/08/15 11:13:41;;;;;;;5.03;2.35;;;;;;;28.15;36.19;97512.00;5005932;28;20033;-56
2022/08/15 11:16:16;;;;;;;5.15;2.05;;;;;;;28.14;36.49;97510.38;5019902;28;20030;-59
2022/08/15 11:18:54;;;;;;;4.97;2.00;;;;;;;28.05;36.47;97511.31;4986501;28;20286;-58
2022/08/15 11:21:30;;;;;;;4.32;2.10;;;;;;;28.09;36.33;97515.81;5011478;28;20040;-58
2022/08/15 11:23:59;;;;;;;4.88;2.20;;;;;;;27.81;36.41;97498.72;5020698;28;20567;-58
2022/08/15 11:26:29;;;;;;;5.35;2.17;;;;;;;27.86;36.91;97500.56;5037303;28;20028;-58
2022/08/15 11:29:05;;;;;;;4.80;2.10;;;;;;;28.04;36.41;97507.03;4990943;28;20030;-58
2022/08/15 11:31:31;;;;;;;5.65;2.30;;;;;;;28.06;36.60;97488.88;5011232;28;20022;-58
2022/08/15 11:33:56;;;;;;;4.50;2.08;;;;;;;28.23;36.26;97486.50;5007685;28;20108;-59
2022/08/15 11:36:25;;;;;;;5.55;2.63;;;;;;;28.21;35.89;97477.97;5007891;28;20025;-58
2022/08/15 11:38:56;;;;;;;7.18;2.38;;;;;;;28.44;36.56;97491.56;5028878;28;20022;-59
2022/08/15 11:41:31;;;;;;;6.00;2.50;;;;;;;28.40;35.92;97494.03;5014565;28;20480;-59
2022/08/15 11:43:58;;;;;;;5.22;2.30;;;;;;;28.03;37.17;97478.75;4999904;28;20033;-58
2022/08/15 11:46:26;;;;;;;4.68;2.50;;;;;;;28.35;36.39;97483.44;5012903;28;20033;-59
2022/08/15 11:49:07;;;;;;;4.30;2.30;;;;;;;28.37;36.79;97489.28;5014882;28;20084;-59
2022/08/15 11:51:40;;;;;;;6.50;2.20;;;;;;;28.05;37.04;97445.31;5000745;28;20058;-58
2022/08/15 11:54:11;;;;;;;6.47;2.45;;;;;;;28.29;36.52;97480.00;5013396;28;20120;-58
2022/08/15 11:57:00;;;;;;;4.70;2.42;;;;;;;28.30;36.91;97457.56;5017122;28;20033;-59
2022/08/15 11:59:40;;;;;;;5.88;2.70;;;;;;;28.51;36.18;97476.78;5010991;28;20018;-59
2022/08/15 12:02:11;;;;;;;4.60;2.33;;;;;;;28.54;36.28;97468.19;4993212;28;20088;-58
2022/08/15 12:04:41;;;;;;;5.85;2.53;;;;;;;28.56;35.86;97457.22;5012825;28;20037;-59
2022/08/15 12:07:14;;;;;;;4.90;2.58;;;;;;;28.66;36.37;97466.97;5016243;28;20080;-58